Terminal Aerodrome Forecast
Issued by NWS

Home | Current Version | Previous Version | Graphics & Text | Print | Product List | Glossary On
Versions: 1 2 3 4 5 6 7 8 9 10 11 12 13 14 15 16 17 18
000
FTUS43 KUNR 230500
TAFGCC
TAF
KGCC 230520Z 2306/2406 33015G25KT P6SM BKN150
     FM231600 31026G36KT P6SM BKN050=

USA.gov is the U.S. government's official web portal to all federal, state and local government web resources and services.